Time;durP1;ratioP1;P1;durP2;ratioP2;P2;SDS_P1;SDS_P2;PMS_P1;PMS_P2;Temp;Humidity;BMP_temperature;BMP_pressure;BME280_temperature;BME280_humidity;BME280_pressure;Samples;Min_cycle;Max_cycle;Signal;HPM_P1;HPM_P2
2024/03/03 00:01:01;;;;;;;12.85;6.65;;;7.50;99.90;;;;;;4933612;29;20039;-83
2024/03/03 00:03:28;;;;;;;12.77;7.03;;;7.40;99.90;;;;;;4932048;29;20048;-83
2024/03/03 00:05:55;;;;;;;11.57;6.88;;;7.40;99.90;;;;;;4936668;29;20044;-84
2024/03/03 00:08:23;;;;;;;12.38;6.07;;;7.40;99.90;;;;;;4952260;29;20039;-84
2024/03/03 00:10:52;;;;;;;14.02;6.78;;;7.40;99.90;;;;;;4936509;29;20111;-83
2024/03/03 00:13:19;;;;;;;12.85;6.95;;;8.10;99.90;;;;;;4936317;29;20039;-83
2024/03/03 00:15:45;;;;;;;11.98;6.43;;;7.40;99.90;;;;;;4935946;29;20126;-83
2024/03/03 00:18:12;;;;;;;11.38;6.35;;;7.40;99.90;;;;;;4936163;29;20082;-83
2024/03/03 00:20:38;;;;;;;16.10;6.70;;;7.40;99.90;;;;;;4935130;29;20748;-83
2024/03/03 00:23:06;;;;;;;13.95;6.85;;;7.40;99.90;;;;;;4936105;29;20819;-83
2024/03/03 00:25:32;;;;;;;12.57;7.00;;;8.10;99.90;;;;;;4936698;29;20470;-83
2024/03/03 00:27:59;;;;;;;10.50;6.50;;;7.40;99.90;;;;;;4934755;29;20123;-83
2024/03/03 00:30:26;;;;;;;18.67;6.53;;;7.40;99.90;;;;;;4933062;29;20047;-83
2024/03/03 00:32:52;;;;;;;12.90;7.03;;;7.90;99.90;;;;;;4936304;29;20103;-84
2024/03/03 00:35:21;;;;;;;11.95;6.72;;;7.50;99.90;;;;;;4927782;29;20059;-84
2024/03/03 00:37:48;;;;;;;12.38;6.72;;;7.50;99.90;;;;;;4952008;29;20046;-84
2024/03/03 00:40:15;;;;;;;13.00;6.15;;;7.50;99.90;;;;;;4936850;29;20048;-85
2024/03/03 00:42:42;;;;;;;12.55;6.90;;;7.50;99.90;;;;;;4926186;29;20040;-82
2024/03/03 00:45:09;;;;;;;12.77;6.80;;;7.70;99.90;;;;;;4925653;29;20044;-82
2024/03/03 00:47:37;;;;;;;11.85;6.57;;;8.30;99.90;;;;;;4938392;29;20035;-82
2024/03/03 00:50:05;;;;;;;11.82;6.35;;;7.70;99.90;;;;;;4937910;29;20481;-82
2024/03/03 00:52:31;;;;;;;13.32;6.97;;;7.70;99.90;;;;;;4940117;29;20564;-82
2024/03/03 00:54:58;;;;;;;12.70;7.15;;;7.70;99.90;;;;;;4930197;29;20048;-82
2024/03/03 00:57:24;;;;;;;15.25;7.43;;;8.20;99.90;;;;;;4940127;29;20493;-82
2024/03/03 00:59:51;;;;;;;12.15;6.43;;;7.70;99.90;;;;;;4939681;29;20066;-82
2024/03/03 01:02:18;;;;;;;11.77;7.03;;;7.60;99.90;;;;;;4958398;29;20076;-82
2024/03/03 01:04:45;;;;;;;13.48;7.05;;;7.60;99.90;;;;;;4933509;29;20099;-83
2024/03/03 01:07:11;;;;;;;13.13;7.13;;;7.60;99.90;;;;;;4941966;29;20066;-82
2024/03/03 01:09:38;;;;;;;16.00;7.07;;;7.50;99.90;;;;;;4953739;29;20149;-82
2024/03/03 01:12:05;;;;;;;10.30;6.35;;;7.80;99.90;;;;;;4939768;29;20044;-82
2024/03/03 01:14:31;;;;;;;12.82;6.88;;;7.30;99.90;;;;;;4930483;29;20044;-82
2024/03/03 01:16:58;;;;;;;12.63;6.90;;;7.90;99.90;;;;;;4948905;29;20096;-83
2024/03/03 01:19:25;;;;;;;15.63;7.03;;;7.30;99.90;;;;;;4945164;29;20042;-82
2024/03/03 01:21:51;;;;;;;12.02;6.70;;;7.30;99.90;;;;;;4927256;29;20493;-82
2024/03/03 01:24:18;;;;;;;11.30;6.55;;;7.30;99.90;;;;;;4951934;29;20048;-82
2024/03/03 01:26:45;;;;;;;11.93;6.75;;;7.30;99.90;;;;;;4939201;29;20046;-82
2024/03/03 01:29:11;;;;;;;12.43;6.55;;;7.30;99.90;;;;;;4939903;29;20800;-82
2024/03/03 01:31:38;;;;;;;11.23;6.40;;;7.30;99.90;;;;;;4927095;29;20572;-82
2024/03/03 01:34:05;;;;;;;12.15;6.97;;;7.30;99.90;;;;;;4939392;29;20062;-82
2024/03/03 01:36:32;;;;;;;11.68;6.35;;;7.30;99.90;;;;;;4934610;29;20032;-82
2024/03/03 01:38:59;;;;;;;12.73;6.85;;;7.70;99.90;;;;;;4943884;29;20036;-82
2024/03/03 01:41:25;;;;;;;11.65;6.47;;;7.30;99.90;;;;;;4935938;29;20048;-82
2024/03/03 01:43:52;;;;;;;12.00;6.28;;;7.80;99.90;;;;;;4941971;29;20047;-82
2024/03/03 01:46:19;;;;;;;10.90;6.25;;;7.30;99.90;;;;;;4939459;29;20047;-83
2024/03/03 01:48:46;;;;;;;12.10;6.40;;;8.00;99.90;;;;;;4939367;29;20058;-82
2024/03/03 01:51:13;;;;;;;11.65;6.30;;;7.30;99.90;;;;;;4939247;29;20043;-82
2024/03/03 01:53:44;;;;;;;10.57;6.30;;;7.50;99.90;;;;;;4938868;29;20047;-82
2024/03/03 01:56:12;;;;;;;12.32;6.30;;;7.40;99.90;;;;;;4938364;29;20040;-82
2024/03/03 01:58:40;;;;;;;11.70;6.50;;;7.50;99.90;;;;;;4939121;29;20159;-82
2024/03/03 02:01:07;;;;;;;11.55;6.45;;;7.60;99.90;;;;;;4950168;29;20050;-82
2024/03/03 02:03:34;;;;;;;13.93;6.32;;;7.50;99.90;;;;;;4938627;29;20052;-82
2024/03/03 02:06:01;;;;;;;11.27;6.40;;;7.50;99.90;;;;;;4938827;29;20040;-82
2024/03/03 02:08:30;;;;;;;12.05;6.13;;;8.40;99.90;;;;;;4951201;29;20560;-82
2024/03/03 02:10:57;;;;;;;11.48;5.82;;;7.60;99.90;;;;;;4927703;29;20044;-82
2024/03/03 02:13:24;;;;;;;12.70;6.72;;;7.60;99.90;;;;;;4936011;29;20051;-82
2024/03/03 02:15:50;;;;;;;11.45;6.03;;;7.50;99.90;;;;;;4926999;29;20047;-82
2024/03/03 02:18:17;;;;;;;11.80;6.07;;;7.50;99.90;;;;;;4937190;29;20081;-82
2024/03/03 02:20:43;;;;;;;10.95;6.28;;;7.50;99.90;;;;;;4951284;29;20047;-82
2024/03/03 02:23:10;;;;;;;12.23;6.13;;;7.60;99.90;;;;;;4943998;29;20042;-82
2024/03/03 02:25:39;;;;;;;12.02;6.25;;;7.60;99.90;;;;;;4938582;29;20059;-81
2024/03/03 02:28:07;;;;;;;11.05;5.85;;;7.60;99.90;;;;;;4938598;29;20051;-82
2024/03/03 02:30:34;;;;;;;9.43;5.57;;;7.60;99.90;;;;;;4953985;29;20040;-82
2024/03/03 02:33:01;;;;;;;13.18;6.07;;;7.60;99.90;;;;;;4953889;29;20051;-82
2024/03/03 02:35:28;;;;;;;11.20;6.57;;;7.60;99.90;;;;;;4938287;29;20074;-82
2024/03/03 02:37:55;;;;;;;12.00;6.03;;;7.50;99.90;;;;;;4940808;29;20039;-82
2024/03/03 02:40:21;;;;;;;11.35;5.78;;;7.50;99.90;;;;;;4954187;29;20043;-82
2024/03/03 02:42:48;;;;;;;11.65;6.20;;;7.50;99.90;;;;;;4952472;29;20536;-82
2024/03/03 02:45:15;;;;;;;10.18;6.40;;;7.60;99.90;;;;;;4937942;29;20075;-83
2024/03/03 02:47:42;;;;;;;11.98;6.43;;;7.50;99.90;;;;;;4937641;29;20035;-83
2024/03/03 02:50:09;;;;;;;12.10;6.70;;;7.50;99.90;;;;;;4938139;29;20503;-82
2024/03/03 02:52:35;;;;;;;13.00;6.45;;;7.50;99.90;;;;;;4955736;29;20043;-82
2024/03/03 02:55:02;;;;;;;11.85;6.50;;;7.50;99.90;;;;;;4939897;29;20039;-82
2024/03/03 02:57:29;;;;;;;11.73;6.28;;;7.40;99.90;;;;;;4937258;29;20040;-82
2024/03/03 02:59:55;;;;;;;11.10;6.65;;;7.70;99.90;;;;;;4937762;29;20102;-82
2024/03/03 03:02:22;;;;;;;13.10;6.18;;;7.40;99.90;;;;;;4937862;29;20040;-82
2024/03/03 03:04:52;;;;;;;11.07;5.95;;;7.30;99.90;;;;;;4937622;29;20043;-82
2024/03/03 03:07:18;;;;;;;13.57;6.60;;;7.30;99.90;;;;;;4936388;29;20572;-82
2024/03/03 03:09:45;;;;;;;10.52;6.50;;;7.50;99.90;;;;;;4931166;29;20127;-82
2024/03/03 03:12:12;;;;;;;10.88;6.20;;;7.30;99.90;;;;;;4937420;29;20091;-82
2024/03/03 03:14:39;;;;;;;12.88;6.72;;;8.20;99.90;;;;;;4937945;29;20078;-82
2024/03/03 03:17:06;;;;;;;11.55;6.50;;;7.80;99.90;;;;;;4922883;29;20055;-82
2024/03/03 03:19:33;;;;;;;11.98;5.70;;;7.40;99.90;;;;;;4945306;29;20492;-82
2024/03/03 03:22:00;;;;;;;11.98;6.60;;;7.40;99.90;;;;;;4938878;29;20044;-82
2024/03/03 03:24:26;;;;;;;12.90;6.68;;;7.30;99.90;;;;;;4925535;29;20390;-82
2024/03/03 03:26:53;;;;;;;12.65;7.00;;;7.20;99.90;;;;;;4933306;29;20153;-82
2024/03/03 03:29:32;;;;;;;11.65;6.70;;;7.20;99.90;;;;;;5124836;27;20386;-82
2024/03/03 03:31:59;;;;;;;13.77;7.32;;;7.30;99.90;;;;;;5091933;28;20412;-82
2024/03/03 03:34:25;;;;;;;13.57;6.95;;;7.20;99.90;;;;;;5086304;28;20388;-82
2024/03/03 03:36:53;;;;;;;12.93;6.65;;;7.20;99.90;;;;;;5112990;28;20040;-82
2024/03/03 03:39:20;;;;;;;12.85;7.25;;;7.60;99.90;;;;;;5075441;28;20044;-82
2024/03/03 03:41:50;;;;;;;13.95;6.80;;;7.20;99.90;;;;;;5086381;28;20040;-82
2024/03/03 03:44:19;;;;;;;11.98;7.10;;;7.60;99.90;;;;;;5099826;28;20055;-82
2024/03/03 03:46:46;;;;;;;13.38;7.18;;;7.00;99.90;;;;;;5103311;28;20115;-82
2024/03/03 03:49:14;;;;;;;11.93;6.78;;;7.00;99.90;;;;;;5093306;28;20132;-82
2024/03/03 03:51:41;;;;;;;12.55;7.55;;;6.90;99.90;;;;;;5094772;28;20063;-82
2024/03/03 03:54:07;;;;;;;13.70;7.55;;;7.50;99.90;;;;;;5102783;28;20051;-82
2024/03/03 03:56:34;;;;;;;16.25;8.48;;;6.90;99.90;;;;;;5089301;28;20040;-82
2024/03/03 03:59:02;;;;;;;15.05;8.55;;;7.10;99.90;;;;;;5102659;28;20516;-82
2024/03/03 04:01:28;;;;;;;15.43;8.52;;;6.90;99.90;;;;;;5085538;28;20147;-82
2024/03/03 04:03:56;;;;;;;17.17;8.52;;;6.80;99.90;;;;;;5091698;28;20057;-82
2024/03/03 04:06:27;;;;;;;16.55;8.77;;;6.80;99.90;;;;;;5105766;28;20040;-82
2024/03/03 04:08:55;;;;;;;15.13;8.27;;;6.80;99.90;;;;;;5081138;28;20497;-82
2024/03/03 04:11:22;;;;;;;15.75;8.73;;;7.50;99.90;;;;;;5098907;28;20839;-82
2024/03/03 04:13:49;;;;;;;15.57;8.77;;;6.80;99.90;;;;;;5078716;28;20048;-82
2024/03/03 04:16:17;;;;;;;18.58;9.07;;;7.50;99.90;;;;;;5070963;28;20041;-82
2024/03/03 04:18:45;;;;;;;16.58;8.85;;;6.80;99.90;;;;;;5079128;28;20067;-82
2024/03/03 04:21:13;;;;;;;15.52;8.73;;;7.70;99.90;;;;;;5085108;28;20045;-82
2024/03/03 04:23:40;;;;;;;17.05;9.48;;;6.80;99.90;;;;;;5082074;28;20110;-82
2024/03/03 04:26:07;;;;;;;17.20;9.73;;;7.00;99.90;;;;;;5066383;28;20041;-82
2024/03/03 04:28:34;;;;;;;18.13;9.82;;;6.80;99.90;;;;;;5065048;28;20041;-82
2024/03/03 04:31:10;;;;;;;15.00;8.65;;;6.80;99.90;;;;;;5065375;28;20124;-82
2024/03/03 04:33:36;;;;;;;;;;;6.80;99.90;;;;;;5070918;28;20742;-82
2024/03/03 04:36:09;;;;;;;19.05;8.98;;;6.90;99.90;;;;;;5082107;28;19943;-82
2024/03/03 04:38:39;;;;;;;18.20;9.32;;;6.90;99.90;;;;;;5057446;28;20038;-82
2024/03/03 04:41:17;;;;;;;17.38;9.52;;;7.60;99.90;;;;;;5052279;28;20029;-82
2024/03/03 04:43:43;;;;;;;18.65;10.15;;;6.80;99.90;;;;;;5052470;28;20117;-82
2024/03/03 04:46:10;;;;;;;20.50;11.05;;;6.90;99.90;;;;;;5052191;28;20034;-82
2024/03/03 04:48:37;;;;;;;20.70;10.45;;;6.90;99.90;;;;;;5068421;28;20099;-82
2024/03/03 04:51:05;;;;;;;19.50;11.18;;;6.90;99.90;;;;;;5095298;28;20033;-82
2024/03/03 04:53:33;;;;;;;20.30;10.88;;;7.20;99.90;;;;;;5065181;28;20088;-82
2024/03/03 04:56:00;;;;;;;18.92;10.90;;;6.90;99.90;;;;;;5068729;28;20046;-82
2024/03/03 04:58:26;;;;;;;19.92;10.50;;;6.90;99.90;;;;;;5053823;28;20122;-82
2024/03/03 05:00:53;;;;;;;20.20;11.50;;;6.90;99.90;;;;;;5080557;28;20044;-82
2024/03/03 05:03:20;;;;;;;22.00;11.13;;;7.50;99.90;;;;;;5045435;28;20037;-82
2024/03/03 05:05:46;;;;;;;22.10;11.60;;;7.10;99.90;;;;;;5068348;28;20087;-82
2024/03/03 05:08:13;;;;;;;21.60;11.48;;;6.80;99.90;;;;;;5051490;28;20073;-82
2024/03/03 05:10:40;;;;;;;19.90;10.82;;;7.20;99.90;;;;;;5068333;28;20439;-82
2024/03/03 05:13:06;;;;;;;21.20;11.38;;;6.80;99.90;;;;;;5056532;28;20499;-81
2024/03/03 05:15:33;;;;;;;21.90;11.32;;;7.10;99.90;;;;;;5072923;28;20087;-82
2024/03/03 05:18:00;;;;;;;23.25;12.13;;;7.20;99.90;;;;;;5049658;28;20124;-82
2024/03/03 05:20:29;;;;;;;22.65;12.23;;;6.70;99.90;;;;;;5064675;28;20049;-82
2024/03/03 05:22:56;;;;;;;23.40;12.48;;;6.80;99.90;;;;;;5050789;28;20045;-82
2024/03/03 05:25:22;;;;;;;22.13;12.73;;;6.70;99.90;;;;;;5050975;28;20042;-82
2024/03/03 05:27:51;;;;;;;21.40;11.15;;;6.70;99.90;;;;;;5058292;28;20597;-82
2024/03/03 05:30:18;;;;;;;23.42;12.45;;;6.70;99.90;;;;;;5067625;28;20041;-82
2024/03/03 05:32:45;;;;;;;23.35;12.57;;;6.70;99.90;;;;;;5073052;28;20064;-82
2024/03/03 05:35:12;;;;;;;25.73;12.40;;;6.70;99.90;;;;;;5067454;28;20379;-82
2024/03/03 05:37:38;;;;;;;24.40;12.00;;;6.70;99.90;;;;;;5067087;28;20159;-82
2024/03/03 05:40:06;;;;;;;21.30;12.30;;;6.90;99.90;;;;;;5067314;28;20541;-82
2024/03/03 05:42:32;;;;;;;24.30;12.57;;;6.70;99.90;;;;;;5064344;28;20054;-82
2024/03/03 05:44:59;;;;;;;25.15;12.65;;;6.80;99.90;;;;;;5095827;28;20184;-82
2024/03/03 05:47:26;;;;;;;22.48;11.77;;;7.10;99.90;;;;;;5081468;28;20128;-82
2024/03/03 05:49:52;;;;;;;24.40;12.57;;;6.80;99.90;;;;;;5079218;28;20044;-81
2024/03/03 05:52:19;;;;;;;21.90;12.32;;;7.30;99.90;;;;;;5041814;28;20080;-82
2024/03/03 05:54:45;;;;;;;24.02;12.82;;;6.70;99.90;;;;;;5050878;28;20029;-82
2024/03/03 05:57:13;;;;;;;23.20;12.57;;;6.80;99.90;;;;;;5083951;28;20033;-82
2024/03/03 05:59:40;;;;;;;22.52;12.77;;;6.70;99.90;;;;;;5084130;28;20049;-82
2024/03/03 06:02:07;;;;;;;24.83;12.98;;;6.70;99.90;;;;;;5091012;28;20045;-82
2024/03/03 06:04:36;;;;;;;23.00;11.75;;;6.80;99.90;;;;;;5066585;28;20407;-82
2024/03/03 06:07:04;;;;;;;23.63;13.10;;;6.60;99.90;;;;;;5056997;28;20033;-82
2024/03/03 06:09:30;;;;;;;23.85;12.88;;;6.50;99.90;;;;;;5051484;28;20049;-82
2024/03/03 06:11:59;;;;;;;22.27;12.25;;;6.50;99.90;;;;;;5055379;28;20411;-82
2024/03/03 06:14:25;;;;;;;25.20;13.18;;;7.40;99.90;;;;;;5055780;28;20037;-82
2024/03/03 06:16:52;;;;;;;25.13;12.68;;;6.80;99.90;;;;;;5069926;28;20067;-82
2024/03/03 06:19:18;;;;;;;24.25;12.80;;;6.50;99.90;;;;;;5073269;28;20037;-83
2024/03/03 06:21:49;;;;;;;23.38;12.07;;;6.50;99.90;;;;;;5080266;28;20486;-82
2024/03/03 06:24:19;;;;;;;25.00;13.15;;;6.40;99.90;;;;;;5050121;28;20037;-82
2024/03/03 06:26:46;;;;;;;29.17;13.55;;;6.40;99.90;;;;;;5050118;28;20068;-82
2024/03/03 06:29:14;;;;;;;26.58;13.48;;;6.50;99.90;;;;;;5073857;28;20054;-83
2024/03/03 06:31:45;;;;;;;27.70;13.75;;;7.40;99.90;;;;;;5047989;28;20064;-82
2024/03/03 06:34:12;;;;;;;22.30;13.10;;;6.40;99.90;;;;;;5079254;28;20112;-82
2024/03/03 06:36:39;;;;;;;24.92;13.02;;;6.70;99.90;;;;;;5066524;28;20041;-82
2024/03/03 06:39:05;;;;;;;26.98;13.40;;;6.40;99.90;;;;;;5049897;28;20071;-82
2024/03/03 06:41:32;;;;;;;25.70;14.05;;;6.80;99.90;;;;;;5070919;28;20532;-82
2024/03/03 06:43:59;;;;;;;24.58;12.95;;;6.50;99.90;;;;;;5049457;28;20060;-82
2024/03/03 06:46:25;;;;;;;24.50;13.45;;;6.60;99.90;;;;;;5066300;28;20140;-82
2024/03/03 06:48:52;;;;;;;25.45;13.10;;;6.90;99.90;;;;;;5067783;28;20111;-82
2024/03/03 06:51:19;;;;;;;26.65;13.73;;;6.70;99.90;;;;;;5097658;28;20063;-82
2024/03/03 06:53:46;;;;;;;27.73;15.20;;;6.60;99.90;;;;;;5070949;28;20037;-82
2024/03/03 06:56:14;;;;;;;25.83;13.55;;;7.50;99.90;;;;;;5049578;28;20038;-82
2024/03/03 06:58:42;;;;;;;24.85;13.55;;;7.70;99.90;;;;;;5049756;28;20034;-82
2024/03/03 07:01:09;;;;;;;25.13;12.65;;;6.80;99.90;;;;;;5076267;28;20052;-82
2024/03/03 07:06:06;;;;;;;25.02;13.10;;;6.70;99.90;;;;;;5066296;28;20056;-82
2024/03/03 07:08:32;;;;;;;25.27;13.90;;;6.70;99.90;;;;;;5065942;28;20033;-82
2024/03/03 07:10:59;;;;;;;26.77;13.38;;;6.70;99.90;;;;;;5066102;28;20041;-82
2024/03/03 07:13:25;;;;;;;26.83;14.15;;;6.70;99.90;;;;;;5065472;28;20037;-82
2024/03/03 07:15:55;;;;;;;31.95;14.02;;;6.60;99.90;;;;;;5082150;28;20440;-82
2024/03/03 07:18:22;;;;;;;26.75;13.57;;;6.80;99.90;;;;;;5049496;28;20099;-82
2024/03/03 07:20:48;;;;;;;26.67;14.45;;;6.60;99.90;;;;;;5069288;28;20391;-82
2024/03/03 07:23:15;;;;;;;29.35;13.88;;;6.90;99.90;;;;;;5065733;28;20049;-82
2024/03/03 07:25:41;;;;;;;26.60;13.52;;;7.00;99.90;;;;;;5070896;28;20034;-82
2024/03/03 07:28:08;;;;;;;28.38;13.45;;;7.00;99.90;;;;;;5072566;28;20509;-82
2024/03/03 07:30:35;;;;;;;29.23;15.20;;;6.60;99.90;;;;;;5085894;28;20102;-82
2024/03/03 07:33:02;;;;;;;27.85;14.68;;;6.60;99.90;;;;;;5087286;28;20125;-83
2024/03/03 07:35:29;;;;;;;27.90;14.18;;;6.60;99.90;;;;;;5076972;28;20036;-83
2024/03/03 07:37:56;;;;;;;29.23;14.27;;;6.60;99.90;;;;;;5049418;28;20556;-83
2024/03/03 07:40:22;;;;;;;25.45;14.00;;;6.70;99.90;;;;;;5069472;28;20095;-83
2024/03/03 07:42:49;;;;;;;28.73;14.68;;;7.10;99.90;;;;;;5051171;28;20108;-83
2024/03/03 07:45:15;;;;;;;27.08;14.25;;;7.00;99.90;;;;;;5048254;28;20033;-83
2024/03/03 07:47:42;;;;;;;31.23;14.85;;;6.80;99.90;;;;;;5065509;28;20041;-83
2024/03/03 07:50:09;;;;;;;30.48;14.73;;;6.80;99.90;;;;;;5068741;28;20094;-83
2024/03/03 07:52:35;;;;;;;30.58;14.27;;;6.80;99.90;;;;;;5082449;28;20509;-83
2024/03/03 07:55:02;;;;;;;28.98;14.75;;;7.70;99.90;;;;;;5049049;28;20041;-83
2024/03/03 07:57:29;;;;;;;26.63;14.35;;;6.90;99.90;;;;;;5045870;28;20034;-84
2024/03/03 07:59:55;;;;;;;28.27;14.95;;;7.00;99.90;;;;;;5069371;28;20046;-83
2024/03/03 08:02:22;;;;;;;26.77;14.57;;;7.10;99.90;;;;;;5051790;28;20052;-83
2024/03/03 08:04:52;;;;;;;27.95;14.32;;;7.50;99.90;;;;;;5067813;28;20038;-83
2024/03/03 08:07:19;;;;;;;27.55;13.90;;;7.20;99.90;;;;;;5068494;28;20167;-83
2024/03/03 08:09:46;;;;;;;28.38;13.70;;;8.20;99.90;;;;;;5068528;28;20128;-83
2024/03/03 08:12:12;;;;;;;28.80;14.07;;;7.40;99.90;;;;;;5055902;28;20042;-83
2024/03/03 08:14:40;;;;;;;27.35;13.70;;;7.40;99.90;;;;;;5066194;28;20057;-81
2024/03/03 08:17:06;;;;;;;27.27;14.25;;;7.70;99.90;;;;;;5086727;28;20582;-83
2024/03/03 08:19:33;;;;;;;24.75;13.88;;;7.60;99.90;;;;;;5070319;28;20056;-83
2024/03/03 08:22:00;;;;;;;27.30;13.90;;;7.70;99.90;;;;;;5074304;28;20130;-83
2024/03/03 08:24:27;;;;;;;25.50;14.20;;;7.70;99.90;;;;;;5060732;28;20069;-83
2024/03/03 08:26:54;;;;;;;27.95;13.90;;;7.80;99.90;;;;;;5068860;28;20072;-83
2024/03/03 08:29:20;;;;;;;23.80;13.32;;;8.80;99.90;;;;;;5055586;28;20053;-83
2024/03/03 08:31:47;;;;;;;25.35;13.43;;;8.00;99.90;;;;;;5059043;28;20041;-84
2024/03/03 08:34:13;;;;;;;24.02;12.43;;;8.10;99.90;;;;;;5075304;28;20091;-84
2024/03/03 08:36:43;;;;;;;25.27;13.20;;;8.30;99.90;;;;;;5053215;28;20461;-84
2024/03/03 08:39:11;;;;;;;26.10;13.45;;;8.30;99.90;;;;;;5041830;28;20042;-84
2024/03/03 08:41:42;;;;;;;22.50;12.90;;;8.40;99.90;;;;;;5084660;28;20044;-84
2024/03/03 08:44:10;;;;;;;23.10;13.20;;;8.60;99.90;;;;;;5068687;28;20689;-84
2024/03/03 08:46:36;;;;;;;22.48;12.52;;;8.70;99.90;;;;;;5068294;28;20037;-84
2024/03/03 08:49:03;;;;;;;23.42;13.15;;;8.90;99.90;;;;;;5059987;28;20092;-84
2024/03/03 08:51:29;;;;;;;25.52;12.75;;;8.90;99.90;;;;;;5047997;28;20041;-83
2024/03/03 08:53:56;;;;;;;24.35;12.88;;;9.00;99.90;;;;;;5064613;28;20033;-84
2024/03/03 08:56:23;;;;;;;22.35;13.15;;;9.10;99.90;;;;;;5055659;28;20064;-83
2024/03/03 08:58:56;;;;;;;25.67;13.23;;;9.10;99.90;;;;;;5066347;28;20036;-83
2024/03/03 09:01:23;;;;;;;23.77;12.65;;;9.10;99.90;;;;;;5068425;28;20053;-83
2024/03/03 09:03:50;;;;;;;21.75;12.18;;;9.10;99.90;;;;;;5066162;28;20406;-82
2024/03/03 09:06:16;;;;;;;26.55;13.20;;;9.20;99.90;;;;;;5067797;28;20051;-83
2024/03/03 09:08:44;;;;;;;23.50;13.80;;;9.20;99.90;;;;;;5051297;28;20727;-82
2024/03/03 09:11:12;;;;;;;23.55;13.25;;;9.20;99.90;;;;;;5062426;28;20552;-83
2024/03/03 09:13:38;;;;;;;23.83;13.70;;;9.10;99.90;;;;;;5047582;28;20048;-82
2024/03/03 09:16:07;;;;;;;22.95;12.82;;;9.30;99.90;;;;;;5094190;28;20481;-83
2024/03/03 09:18:34;;;;;;;24.95;13.55;;;9.40;99.90;;;;;;5074711;28;20095;-82
2024/03/03 09:21:00;;;;;;;25.33;12.95;;;9.50;99.90;;;;;;5066923;28;20042;-82
2024/03/03 09:23:27;;;;;;;25.60;13.98;;;9.60;99.90;;;;;;5053905;28;20037;-82
2024/03/03 09:25:57;;;;;;;23.50;13.75;;;9.70;99.90;;;;;;5071669;28;20037;-82
2024/03/03 09:28:24;;;;;;;27.08;13.52;;;9.80;99.90;;;;;;5067710;28;20478;-82
2024/03/03 09:30:51;;;;;;;24.83;13.70;;;10.10;99.90;;;;;;5064274;28;20045;-85
2024/03/03 09:33:18;;;;;;;24.88;13.13;;;10.10;99.90;;;;;;5039744;28;20629;-82
2024/03/03 09:35:44;;;;;;;27.30;13.63;;;10.90;99.90;;;;;;5050399;28;20041;-83
2024/03/03 09:38:11;;;;;;;24.92;13.80;;;10.10;99.90;;;;;;5085518;28;20045;-82
2024/03/03 09:40:38;;;;;;;26.77;14.32;;;10.50;99.90;;;;;;5075548;28;20052;-82
2024/03/03 09:43:06;;;;;;;23.67;13.35;;;10.10;99.90;;;;;;5073941;28;20490;-83
2024/03/03 09:45:34;;;;;;;29.02;13.15;;;10.10;99.90;;;;;;5071186;28;20086;-83
2024/03/03 09:48:02;;;;;;;25.90;13.45;;;10.10;99.90;;;;;;5067340;28;20133;-83
2024/03/03 09:50:29;;;;;;;25.80;13.55;;;10.20;99.90;;;;;;5068351;28;20044;-82
2024/03/03 09:52:57;;;;;;;31.67;13.23;;;10.20;99.90;;;;;;5050890;28;20037;-83
2024/03/03 09:55:25;;;;;;;23.15;12.35;;;10.30;99.90;;;;;;5053361;28;20034;-83
2024/03/03 09:57:52;;;;;;;24.23;13.63;;;10.30;99.90;;;;;;5058537;28;20044;-83
2024/03/03 10:00:19;;;;;;;24.98;13.70;;;10.30;99.90;;;;;;5084167;28;20041;-82
2024/03/03 10:02:47;;;;;;;22.90;13.10;;;10.40;99.90;;;;;;5073192;28;20037;-81
2024/03/03 10:05:16;;;;;;;25.50;12.60;;;10.40;99.90;;;;;;5049967;28;20467;-82
2024/03/03 10:07:50;;;;;;;26.63;13.48;;;10.50;99.90;;;;;;5070434;28;20040;-83
2024/03/03 10:10:21;;;;;;;26.05;13.20;;;10.60;99.90;;;;;;5066709;28;20069;-82
2024/03/03 10:12:48;;;;;;;24.05;12.82;;;10.60;99.90;;;;;;5067023;28;20104;-83
2024/03/03 10:15:17;;;;;;;24.88;13.55;;;10.60;99.90;;;;;;5044347;28;20507;-84
2024/03/03 10:17:44;;;;;;;27.23;12.98;;;10.60;99.90;;;;;;5067324;28;20049;-83
2024/03/03 10:20:12;;;;;;;22.83;13.20;;;10.70;99.90;;;;;;5053400;28;20040;-82
2024/03/03 10:22:43;;;;;;;23.05;12.38;;;10.90;99.90;;;;;;5062833;28;20491;-82
2024/03/03 10:25:11;;;;;;;23.80;12.57;;;11.00;99.90;;;;;;5060859;28;21793;-83
2024/03/03 10:27:43;;;;;;;21.63;11.57;;;11.10;99.90;;;;;;5057191;28;20053;-84
2024/03/03 10:30:12;;;;;;;23.42;11.52;;;11.20;99.90;;;;;;5047686;28;20508;-82
2024/03/03 10:32:39;;;;;;;21.75;11.70;;;11.30;99.90;;;;;;5071499;28;20075;-83
2024/03/03 10:35:11;;;;;;;22.38;11.48;;;11.40;99.90;;;;;;5079889;28;20068;-83
2024/03/03 10:37:53;;;;;;;19.27;11.60;;;11.50;99.90;;;;;;5065341;28;20049;-83
2024/03/03 10:40:21;;;;;;;21.30;12.10;;;11.60;99.90;;;;;;5047276;28;20049;-82
2024/03/03 10:42:48;;;;;;;24.50;12.88;;;11.80;99.90;;;;;;5060653;28;20391;-83
2024/03/03 10:45:15;;;;;;;18.85;11.52;;;12.00;99.90;;;;;;5065901;28;20049;-83
2024/03/03 10:47:42;;;;;;;22.40;12.50;;;12.00;99.90;;;;;;5074236;28;20041;-83
2024/03/03 10:50:16;;;;;;;21.48;12.43;;;12.00;99.90;;;;;;5073014;28;20045;-83
2024/03/03 10:52:43;;;;;;;25.13;13.18;;;12.00;99.90;;;;;;5081952;28;20494;-82
2024/03/03 10:55:11;;;;;;;23.88;12.57;;;12.80;99.90;;;;;;5077094;28;20037;-83
2024/03/03 10:57:38;;;;;;;24.55;13.00;;;12.10;99.90;;;;;;5066699;28;20048;-83
2024/03/03 11:00:11;;;;;;;23.33;12.38;;;12.00;99.90;;;;;;5054801;28;20038;-82
2024/03/03 11:02:39;;;;;;;26.58;13.15;;;12.00;99.90;;;;;;5079253;28;20048;-84
2024/03/03 11:05:06;;;;;;;21.90;12.80;;;12.00;99.90;;;;;;5087524;28;20486;-84
2024/03/03 11:07:36;;;;;;;25.48;13.00;;;12.00;99.90;;;;;;5042221;28;20073;-84
2024/03/03 11:10:04;;;;;;;22.20;12.73;;;12.00;99.90;;;;;;5072412;28;20044;-83
2024/03/03 11:12:36;;;;;;;24.45;12.80;;;12.10;99.90;;;;;;5080188;28;20083;-83
2024/03/03 11:15:04;;;;;;;22.15;12.70;;;12.20;99.90;;;;;;5069737;28;20036;-83
2024/03/03 11:17:41;;;;;;;25.55;12.43;;;12.10;99.90;;;;;;5065735;28;20037;-82
2024/03/03 11:20:15;;;;;;;23.92;12.43;;;12.30;99.90;;;;;;5074012;28;20397;-84
2024/03/03 11:22:53;;;;;;;24.83;13.45;;;12.30;99.90;;;;;;5066781;28;20439;-83
2024/03/03 11:25:21;;;;;;;19.77;12.45;;;12.40;99.90;;;;;;5055491;28;20494;-84
2024/03/03 11:27:55;;;;;;;21.02;12.07;;;12.50;99.90;;;;;;5075030;28;20057;-84
2024/03/03 11:30:22;;;;;;;21.35;11.90;;;12.50;99.90;;;;;;5045433;28;20037;-84
2024/03/03 11:32:50;;;;;;;23.88;12.02;;;12.60;99.90;;;;;;5071342;28;20033;-84
2024/03/03 11:35:18;;;;;;;24.05;12.50;;;12.50;99.90;;;;;;5074786;28;20087;-84
2024/03/03 11:37:45;;;;;;;21.40;11.77;;;12.60;99.90;;;;;;5069857;28;20395;-84
2024/03/03 11:40:16;;;;;;;22.92;11.90;;;12.90;99.90;;;;;;5068399;28;20049;-84
2024/03/03 11:42:45;;;;;;;21.33;11.68;;;12.70;99.90;;;;;;5065454;28;20072;-84
2024/03/03 11:45:11;;;;;;;20.88;11.85;;;12.80;99.90;;;;;;5065661;28;20041;-84
2024/03/03 11:47:46;;;;;;;19.45;11.65;;;12.90;99.90;;;;;;5062310;28;20525;-84
2024/03/03 11:50:24;;;;;;;23.98;12.10;;;12.80;99.90;;;;;;5072691;28;20120;-84
2024/03/03 11:52:52;;;;;;;26.30;12.45;;;12.60;99.90;;;;;;5069504;28;20033;-83
2024/03/03 11:55:23;;;;;;;21.33;11.70;;;12.90;99.90;;;;;;5056285;28;20046;-84
2024/03/03 11:57:51;;;;;;;17.45;10.93;;;12.90;99.90;;;;;;5050950;28;20068;-83
2024/03/03 12:00:23;;;;;;;21.52;11.13;;;12.90;99.90;;;;;;5082021;28;20061;-83
2024/03/03 12:02:52;;;;;;;24.75;11.60;;;12.90;99.90;;;;;;5053298;28;20049;-83
2024/03/03 12:05:18;;;;;;;17.45;10.07;;;12.90;99.90;;;;;;5069119;28;20094;-83
2024/03/03 12:07:55;;;;;;;19.38;11.05;;;12.50;99.90;;;;;;5068684;28;20038;-83
2024/03/03 12:10:26;;;;;;;21.65;10.18;;;13.10;99.90;;;;;;5052357;28;20445;-83
2024/03/03 12:12:56;;;;;;;18.30;10.60;;;13.20;99.90;;;;;;5053180;28;20037;-83
2024/03/03 12:15:27;;;;;;;17.83;10.27;;;13.30;99.90;;;;;;5070639;28;20049;-83
2024/03/03 12:17:56;;;;;;;19.63;10.38;;;13.40;99.90;;;;;;5066594;28;20520;-84
2024/03/03 12:20:24;;;;;;;18.08;9.93;;;13.60;99.90;;;;;;5080398;28;20033;-84
2024/03/03 12:22:52;;;;;;;18.02;11.07;;;13.60;99.90;;;;;;5079032;28;20052;-84
2024/03/03 12:25:20;;;;;;;19.52;10.45;;;13.70;99.90;;;;;;5075223;28;20124;-84
2024/03/03 12:27:58;;;;;;;18.63;10.55;;;13.80;99.90;;;;;;5051729;28;20442;-84
2024/03/03 12:30:30;;;;;;;17.98;10.30;;;13.90;99.90;;;;;;5086286;28;20056;-83
2024/03/03 12:32:58;;;;;;;19.15;10.07;;;13.90;99.90;;;;;;5064622;28;20611;-82
2024/03/03 12:35:24;;;;;;;19.85;10.60;;;14.00;99.90;;;;;;5068578;28;20490;-83
2024/03/03 12:37:53;;;;;;;17.33;9.88;;;14.00;99.90;;;;;;5061066;28;20048;-83
2024/03/03 12:40:19;;;;;;;19.77;9.18;;;14.00;99.90;;;;;;5067310;28;20516;-83
2024/03/03 12:42:50;;;;;;;17.40;9.93;;;14.10;99.90;;;;;;5041727;28;20085;-83